Time;durP1;ratioP1;P1;durP2;ratioP2;P2;SDS_P1;SDS_P2;PMS_P1;PMS_P2;Temp;Humidity;BMP_temperature;BMP_pressure;BME280_temperature;BME280_humidity;BME280_pressure;Samples;Min_cycle;Max_cycle;Signal;HPM_P1;HPM_P2
2022/04/01 00:01:36;;;;;;;6.80;5.23;;;3.00;99.90;2.00;100026.00;;;;5035768;28;20186;-72
2022/04/01 00:04:06;;;;;;;5.13;4.63;;;3.00;99.90;1.90;99987.00;;;;5034513;28;20186;-72
2022/04/01 00:06:37;;;;;;;5.13;4.73;;;3.00;99.90;2.00;100025.00;;;;5017967;28;20175;-72
2022/04/01 00:09:09;;;;;;;2.43;2.07;;;3.00;99.90;2.30;99980.00;;;;5034421;28;20178;-72
2022/04/01 00:11:44;;;;;;;5.50;4.27;;;3.20;99.90;2.30;100040.00;;;;5034177;28;20210;-72
2022/04/01 00:14:26;;;;;;;7.67;4.47;;;3.30;99.90;2.10;100039.00;;;;5034392;28;20205;-72
2022/04/01 00:16:55;;;;;;;4.73;4.13;;;3.20;99.90;2.00;100054.00;;;;5035339;28;20575;-72
2022/04/01 00:19:31;;;;;;;3.77;3.03;;;3.10;99.90;2.00;100025.00;;;;5017802;28;20186;-73
2022/04/01 00:22:13;;;;;;;3.33;3.03;;;3.00;99.90;2.00;99989.00;;;;5035236;28;20183;-73
2022/04/01 00:24:55;;;;;;;5.23;4.73;;;3.00;99.90;2.00;100037.00;;;;5034088;28;20634;-72
2022/04/01 00:27:32;;;;;;;4.10;3.73;;;3.10;99.90;2.00;100048.00;;;;5033812;28;20197;-73
2022/04/01 00:30:14;;;;;;;3.30;3.10;;;3.00;99.90;1.80;100043.00;;;;5035553;28;20185;-72
2022/04/01 00:32:43;;;;;;;3.23;2.93;;;2.90;99.90;2.00;100057.00;;;;5033539;28;20580;-73
2022/04/01 00:35:15;;;;;;;2.40;2.20;;;3.00;99.90;1.80;100014.00;;;;5017865;28;20190;-72
2022/04/01 00:37:57;;;;;;;3.97;3.47;;;2.90;99.90;1.80;100050.00;;;;5033711;28;20269;-73
2022/04/01 00:40:39;;;;;;;2.30;2.17;;;2.90;99.90;1.90;100078.00;;;;5034265;28;20179;-73
2022/04/01 00:43:15;;;;;;;1.50;1.40;;;2.90;99.90;1.70;100066.00;;;;5034069;28;20273;-73
2022/04/01 00:45:53;;;;;;;2.73;2.50;;;2.80;99.90;1.80;100036.00;;;;5017418;28;20186;-72
2022/04/01 00:48:30;;;;;;;5.20;4.20;;;2.80;99.90;1.70;100076.00;;;;5017802;28;20541;-72
2022/04/01 00:51:15;;;;;;;3.47;3.13;;;2.80;99.90;1.60;100075.00;;;;5033957;28;20183;-71
2022/04/01 00:53:52;;;;;;;0.70;0.70;;;2.70;99.90;1.60;100069.00;;;;5018360;28;20179;-72
2022/04/01 00:56:24;;;;;;;2.67;2.47;;;2.60;99.90;1.50;100065.00;;;;5016203;28;20320;-72
2022/04/01 00:59:03;;;;;;;1.20;1.10;;;2.60;99.90;1.40;100085.00;;;;5017720;28;20222;-72
2022/04/01 01:01:49;;;;;;;1.80;1.63;;;2.60;99.90;1.40;100076.00;;;;5033397;28;20223;-72
2022/04/01 01:04:19;;;;;;;1.63;1.53;;;2.50;99.90;1.40;100025.00;;;;5033472;28;20225;-72
2022/04/01 01:06:50;;;;;;;1.70;1.60;;;2.50;99.90;1.20;100097.00;;;;5016838;28;20179;-73
2022/04/01 01:09:17;;;;;;;1.37;1.27;;;2.50;99.90;1.30;100038.00;;;;5033210;28;20163;-73
2022/04/01 01:11:52;;;;;;;1.80;1.50;;;2.50;99.90;1.20;100089.00;;;;5034224;28;20233;-73
2022/04/01 01:14:40;;;;;;;1.80;1.70;;;2.40;99.90;1.20;100101.00;;;;5033124;28;20182;-73
2022/04/01 01:17:14;;;;;;;2.00;1.33;;;2.30;99.90;1.20;100032.00;;;;5033367;28;20175;-72
2022/04/01 01:22:41;;;;;;;1.30;1.17;;;2.40;99.90;1.30;100092.00;;;;5033368;28;20178;-73
2022/04/01 01:25:19;;;;;;;1.17;1.10;;;2.40;99.90;1.30;100090.00;;;;5016427;28;20209;-73
2022/04/01 01:27:55;;;;;;;0.93;0.93;;;2.40;99.90;1.30;100091.00;;;;5034075;28;20662;-73
2022/04/01 01:30:32;;;;;;;1.73;1.63;;;2.30;99.90;1.20;100081.00;;;;5032856;28;20205;-73
2022/04/01 01:33:17;;;;;;;1.07;1.07;;;2.30;99.90;1.20;100082.00;;;;5032461;28;20218;-72
2022/04/01 01:35:46;;;;;;;4.20;2.33;;;2.30;99.90;1.20;100097.00;;;;5032841;28;20637;-74
2022/04/01 01:38:21;;;;;;;0.53;0.53;;;2.30;99.90;1.10;100114.00;;;;5032246;28;20635;-74
2022/04/01 01:40:58;;;;;;;2.03;1.93;;;2.30;99.90;1.20;100082.00;;;;5032876;28;20232;-73
2022/04/01 01:43:26;;;;;;;1.23;0.93;;;2.30;99.90;1.30;100096.00;;;;5016053;28;20186;-74
2022/04/01 01:46:03;;;;;;;3.60;3.30;;;2.40;99.90;1.10;100106.00;;;;5032580;28;20175;-74
2022/04/01 01:48:34;;;;;;;3.80;3.50;;;2.20;99.90;1.10;100110.00;;;;5032685;28;20189;-74
2022/04/01 01:56:50;;;;;;;1.50;1.27;;;2.30;99.90;1.20;100110.00;;;;5032676;28;20189;-73
2022/04/01 01:59:24;;;;;;;2.37;2.10;;;2.20;99.90;1.00;100094.00;;;;5015946;28;20684;-73
2022/04/01 02:01:56;;;;;;;1.50;1.40;;;2.10;99.90;1.20;100120.00;;;;5048907;28;20281;-73
2022/04/01 02:04:27;;;;;;;3.77;3.37;;;2.20;99.90;1.10;100070.00;;;;5032336;28;20187;-73
2022/04/01 02:07:02;;;;;;;2.07;1.97;;;2.20;99.90;1.00;100110.00;;;;5016006;28;20202;-74
2022/04/01 02:09:36;;;;;;;2.00;1.90;;;2.10;99.90;1.00;100109.00;;;;5032371;28;20253;-74
2022/04/01 02:12:11;;;;;;;1.90;1.80;;;2.10;99.90;1.00;100115.00;;;;5016172;28;20297;-74
2022/04/01 02:14:42;;;;;;;0.63;0.50;;;2.10;99.90;1.10;100133.00;;;;5032126;28;20232;-76
2022/04/01 02:17:23;;;;;;;0.90;0.90;;;2.10;99.90;1.20;100127.00;;;;5032218;28;20198;-74
2022/04/01 02:20:00;;;;;;;2.23;1.37;;;2.20;99.90;0.90;100127.00;;;;5031882;28;20210;-75
2022/04/01 02:22:36;;;;;;;0.50;0.50;;;2.10;99.90;1.00;100150.00;;;;5032486;28;20232;-75
2022/04/01 02:25:19;;;;;;;1.17;1.07;;;2.00;99.90;0.90;100136.00;;;;5031924;28;20190;-72
2022/04/01 02:27:55;;;;;;;2.23;2.03;;;2.00;99.90;0.90;100074.00;;;;5033271;28;20206;-72
2022/04/01 02:30:32;;;;;;;1.23;1.13;;;2.00;99.90;1.00;100143.00;;;;5031953;28;20193;-73
2022/04/01 02:33:07;;;;;;;1.37;1.27;;;2.00;99.90;0.80;100147.00;;;;5031673;28;20564;-73
2022/04/01 02:35:48;;;;;;;3.10;2.27;;;2.00;99.90;0.90;100147.00;;;;5032114;28;20649;-73
2022/04/01 02:38:25;;;;;;;0.60;0.60;;;1.90;99.90;0.90;100139.00;;;;5031696;28;20178;-73
2022/04/01 02:40:58;;;;;;;2.00;1.70;;;2.00;99.90;0.80;100146.00;;;;5032747;28;20182;-73
2022/04/01 02:43:32;;;;;;;2.13;2.03;;;1.90;99.90;0.90;100141.00;;;;5032074;28;20225;-73
2022/04/01 02:46:12;;;;;;;1.43;1.33;;;2.00;99.90;1.00;100162.00;;;;5033412;28;20175;-74
2022/04/01 02:48:47;;;;;;;1.60;1.40;;;2.00;99.90;0.80;100154.00;;;;5031942;28;20190;-74
2022/04/01 02:51:24;;;;;;;1.53;1.43;;;2.00;99.90;0.80;100162.00;;;;5031443;28;20531;-73
2022/04/01 02:54:06;;;;;;;1.30;1.20;;;2.00;99.90;0.80;100160.00;;;;5032014;28;20257;-73
2022/04/01 02:56:40;;;;;;;0.50;0.50;;;1.90;99.90;0.80;100171.00;;;;5031925;28;20626;-72
2022/04/01 02:59:19;;;;;;;2.43;2.23;;;1.80;99.90;0.80;100156.00;;;;5031683;28;20203;-73
2022/04/01 03:02:02;;;;;;;2.50;2.27;;;1.90;99.90;0.80;100165.00;;;;5015486;28;20245;-73
2022/04/01 03:04:43;;;;;;;3.20;3.00;;;1.90;99.90;0.80;100168.00;;;;5031864;28;20183;-73
2022/04/01 03:07:23;;;;;;;1.83;1.27;;;1.90;99.90;0.70;100175.00;;;;5031676;28;20183;-73
2022/04/01 03:10:11;;;;;;;2.03;1.93;;;1.90;99.90;0.70;100178.00;;;;5032749;28;20270;-73
2022/04/01 03:12:51;;;;;;;1.93;1.80;;;1.80;99.90;0.70;100170.00;;;;5031639;28;20207;-73
2022/04/01 03:15:29;;;;;;;1.10;1.07;;;1.80;99.90;0.70;100177.00;;;;5032706;28;20185;-72
2022/04/01 03:18:03;;;;;;;1.17;1.07;;;1.80;99.90;0.60;100184.00;;;;5015932;28;20183;-72
2022/04/01 03:20:40;;;;;;;1.77;1.53;;;1.80;99.90;0.60;100187.00;;;;5035626;28;20240;-72
2022/04/01 03:23:11;;;;;;;1.30;1.20;;;1.80;99.90;0.70;100182.00;;;;5019284;28;20193;-72
2022/04/01 03:25:59;;;;;;;1.33;1.00;;;1.80;99.90;0.70;100200.00;;;;5035408;28;20163;-73
2022/04/01 03:28:36;;;;;;;1.53;1.07;;;1.80;99.90;0.70;100203.00;;;;5019858;28;20183;-74
2022/04/01 03:31:15;;;;;;;1.67;1.57;;;1.80;99.90;0.70;100140.00;;;;5035488;28;20192;-72
2022/04/01 03:33:45;;;;;;;1.97;1.80;;;1.80;99.90;0.70;100189.00;;;;5035580;28;20191;-76
2022/04/01 03:36:19;;;;;;;0.67;0.67;;;1.80;99.90;0.70;100204.00;;;;5034956;28;20182;-76
2022/04/01 03:38:58;;;;;;;1.60;1.50;;;1.80;99.90;0.70;100149.00;;;;5035037;28;20178;-75
2022/04/01 03:41:30;;;;;;;2.70;2.47;;;1.70;99.90;0.50;100191.00;;;;5035114;28;20182;-75
2022/04/01 03:44:05;;;;;;;1.37;1.30;;;1.70;99.90;0.70;100204.00;;;;5035212;28;20490;-74
2022/04/01 03:47:07;;;;;;;1.70;1.50;;;1.70;99.90;0.60;100215.00;;;;5036203;28;20673;-73
2022/04/01 03:49:49;;;;;;;1.40;0.93;;;1.80;99.90;0.70;100214.00;;;;5018562;28;20239;-73
2022/04/01 03:52:22;;;;;;;2.40;2.20;;;1.70;99.90;0.60;100160.00;;;;5034948;28;20234;-74
2022/04/01 03:55:07;;;;;;;1.70;1.60;;;1.70;99.90;0.70;100221.00;;;;5018263;28;20175;-73
2022/04/01 03:57:44;;;;;;;1.30;1.20;;;1.70;99.90;0.60;100223.00;;;;5034702;28;20228;-76
2022/04/01 04:00:24;;;;;;;2.07;1.93;;;1.70;99.90;0.60;100230.00;;;;5034652;28;20178;-75
2022/04/01 04:02:59;;;;;;;2.53;2.33;;;1.70;99.90;0.60;100220.00;;;;5034301;28;20235;-74
2022/04/01 04:05:42;;;;;;;1.30;1.20;;;1.70;99.90;0.60;100225.00;;;;5034317;28;20214;-74
2022/04/01 04:08:13;;;;;;;1.83;1.73;;;1.70;99.90;0.50;100225.00;;;;5035059;28;20201;-73
2022/04/01 04:10:49;;;;;;;2.10;2.00;;;1.60;99.90;0.50;100206.00;;;;5018584;28;20178;-74
2022/04/01 04:13:27;;;;;;;2.30;2.10;;;1.60;99.90;0.40;100188.00;;;;5018313;28;20703;-73
2022/04/01 04:16:44;;;;;;;1.10;1.10;;;1.60;99.90;0.60;100243.00;;;;5017928;28;20178;-73
2022/04/01 04:19:30;;;;;;;0.83;0.83;;;1.60;99.90;0.50;100253.00;;;;5001831;28;20195;-73
2022/04/01 04:22:12;;;;;;;1.67;1.57;;;1.60;99.90;0.50;100240.00;;;;5035366;28;20179;-74
2022/04/01 04:25:10;;;;;;;3.60;3.37;;;1.60;99.90;0.30;100254.00;;;;5034064;28;20205;-75
2022/04/01 04:27:46;;;;;;;3.83;2.70;;;1.50;99.90;0.60;100267.00;;;;5034327;28;20163;-75
2022/04/01 04:30:12;;;;;;;1.13;1.13;;;1.50;99.90;0.40;100264.00;;;;5017526;28;20567;-76
2022/04/01 04:33:07;;;;;;;2.37;2.27;;;1.50;99.90;0.40;100247.00;;;;5032940;28;20226;-74
2022/04/01 04:35:48;;;;;;;2.20;2.10;;;1.50;99.90;0.20;100267.00;;;;5014344;28;20210;-75
2022/04/01 04:38:26;;;;;;;2.93;2.73;;;1.40;99.90;0.20;100277.00;;;;5017959;28;20198;-75
2022/04/01 04:40:58;;;;;;;2.13;2.03;;;1.30;99.90;0.30;100263.00;;;;5033902;28;20182;-75
2022/04/01 04:43:30;;;;;;;1.80;1.70;;;1.30;99.90;0.40;100292.00;;;;5033663;28;20179;-76
2022/04/01 04:46:10;;;;;;;4.23;3.87;;;1.40;99.90;0.20;100295.00;;;;5033642;28;20193;-74
2022/04/01 04:48:45;;;;;;;3.07;2.83;;;1.30;99.90;0.30;100286.00;;;;5017596;28;20232;-74
2022/04/01 04:51:24;;;;;;;2.30;2.10;;;1.30;99.90;0.20;100304.00;;;;5032565;28;20202;-75
2022/04/01 04:54:06;;;;;;;3.03;2.70;;;1.30;99.90;0.30;100302.00;;;;5017044;28;20254;-74
2022/04/01 04:56:43;;;;;;;1.17;1.17;;;1.30;99.90;0.20;100301.00;;;;5015702;28;20201;-73
2022/04/01 04:59:13;;;;;;;3.70;3.40;;;1.30;99.90;0.20;100251.00;;;;5018165;28;20214;-75
2022/04/01 05:02:09;;;;;;;2.67;2.47;;;1.40;99.90;0.20;100318.00;;;;5033010;28;20253;-75
2022/04/01 05:05:30;;;;;;;2.03;1.93;;;1.30;99.90;0.40;100284.00;;;;5033544;28;20178;-74
2022/04/01 05:08:16;;;;;;;5.67;3.70;;;1.40;99.90;0.20;100273.00;;;;5034561;28;20187;-74
2022/04/01 05:10:55;;;;;;;2.97;2.70;;;1.30;99.90;0.10;100341.00;;;;5033157;28;20175;-74
2022/04/01 05:14:07;;;;;;;4.03;3.63;;;1.20;99.90;0.10;100347.00;;;;5033267;28;20198;-76
2022/04/01 05:17:04;;;;;;;2.43;2.23;;;1.30;99.90;0.20;100338.00;;;;5032870;28;20200;-77
2022/04/01 05:19:38;;;;;;;3.07;2.77;;;1.30;99.90;0.20;100346.00;;;;5033292;28;20175;-76
2022/04/01 05:22:10;;;;;;;8.03;4.27;;;1.30;99.90;0.10;100355.00;;;;5032967;28;20177;-74
2022/04/01 05:24:53;;;;;;;2.40;2.20;;;1.30;99.90;0.20;100364.00;;;;5016440;28;20183;-75
2022/04/01 05:27:30;;;;;;;1.93;1.83;;;1.30;99.90;0.30;100360.00;;;;5016125;28;20197;-74
2022/04/01 05:30:13;;;;;;;3.60;2.87;;;1.30;99.90;0.40;100368.00;;;;5033805;28;20206;-75
2022/04/01 05:33:18;;;;;;;2.13;2.03;;;1.40;99.90;0.50;100398.00;;;;5031724;28;20289;-75
2022/04/01 05:35:51;;;;;;;3.30;2.97;;;1.50;99.90;0.20;100389.00;;;;5015191;28;20273;-76
2022/04/01 05:38:23;;;;;;;3.23;2.97;;;1.40;99.90;0.30;100377.00;;;;5012106;28;20194;-77
2022/04/01 05:40:50;;;;;;;1.83;1.70;;;1.30;99.90;0.40;100401.00;;;;4999351;28;20193;-74
2022/04/01 05:43:24;;;;;;;4.10;3.80;;;1.40;99.90;0.40;100382.00;;;;5028928;28;20245;-75
2022/04/01 05:45:56;;;;;;;3.83;3.03;;;1.40;99.90;0.30;100345.00;;;;5019490;28;20229;-75
2022/04/01 05:48:23;;;;;;;3.27;3.07;;;1.40;99.90;0.30;100404.00;;;;5031611;28;20190;-76
2022/04/01 05:50:52;;;;;;;2.60;2.43;;;1.30;99.90;0.30;100398.00;;;;5032778;28;20629;-76
2022/04/01 05:53:21;;;;;;;3.60;3.30;;;1.40;99.90;0.10;100413.00;;;;5034875;28;20255;-78
2022/04/01 05:55:51;;;;;;;3.40;3.10;;;1.30;99.90;0.30;100404.00;;;;5051300;28;20182;-76
2022/04/01 05:58:22;;;;;;;2.93;2.73;;;1.40;99.90;0.30;100406.00;;;;5052410;28;20213;-77
2022/04/01 06:01:29;;;;;;;3.67;3.37;;;1.40;99.90;0.30;100420.00;;;;5034981;28;20220;-75
2022/04/01 06:04:25;;;;;;;4.80;4.40;;;1.50;99.90;0.20;100433.00;;;;5035608;28;20243;-78
2022/04/01 06:07:04;;;;;;;1.97;1.77;;;1.40;99.90;0.30;100439.00;;;;5051531;28;20185;-77
2022/04/01 06:10:09;;;;;;;4.97;2.60;;;1.40;99.90;0.30;100427.00;;;;5051733;28;20189;-77
2022/04/01 06:13:10;;;;;;;3.20;2.90;;;1.40;99.90;0.30;100428.00;;;;5052132;28;20247;-77
2022/04/01 06:16:13;;;;;;;1.90;1.80;;;1.40;99.90;0.40;100455.00;;;;5035252;28;20174;-77
2022/04/01 06:19:18;;;;;;;4.10;3.73;;;1.40;99.90;0.30;100419.00;;;;5052260;28;20185;-77
2022/04/01 06:22:01;;;;;;;3.27;3.07;;;1.40;99.90;0.40;100445.00;;;;5035702;28;20189;-78
2022/04/01 06:25:11;;;;;;;4.00;3.70;;;1.50;99.90;0.40;100460.00;;;;5052003;28;20170;-78
2022/04/01 06:28:32;;;;;;;2.73;2.53;;;1.50;99.90;0.50;100462.00;;;;5030042;28;20172;-78
2022/04/01 06:31:05;;;;;;;3.73;3.43;;;1.60;99.90;0.50;100457.00;;;;5030893;28;20653;-78
2022/04/01 06:33:59;;;;;;;2.43;2.33;;;1.60;99.90;0.60;100412.00;;;;5027418;28;20214;-78
2022/04/01 06:36:41;;;;;;;4.50;4.20;;;1.60;99.90;0.40;100476.00;;;;5032246;28;20197;-78
2022/04/01 06:39:15;;;;;;;3.03;2.73;;;1.60;99.90;0.70;100476.00;;;;5047821;28;20213;-77
2022/04/01 06:41:57;;;;;;;2.80;2.60;;;1.60;99.90;0.60;100425.00;;;;5032007;28;20178;-78
2022/04/01 06:44:23;;;;;;;5.67;3.23;;;1.70;99.90;0.50;100477.00;;;;5034310;28;20179;-76
2022/04/01 06:46:51;;;;;;;3.00;2.80;;;1.70;99.90;0.50;100497.00;;;;5051927;28;20602;-77
2022/04/01 06:49:18;;;;;;;2.83;2.63;;;1.60;99.90;0.50;100500.00;;;;5035477;28;20273;-76
2022/04/01 06:51:45;;;;;;;4.17;3.63;;;1.60;99.90;0.40;100502.00;;;;5051804;28;20194;-76
2022/04/01 06:54:12;;;;;;;3.80;3.50;;;1.60;99.90;0.40;100441.00;;;;5054161;28;20224;-77
2022/04/01 06:56:38;;;;;;;2.50;2.30;;;1.60;99.90;0.60;100510.00;;;;5054639;28;20652;-77
2022/04/01 06:59:06;;;;;;;3.03;2.70;;;1.60;99.90;0.50;100471.00;;;;5054723;28;20205;-77
2022/04/01 07:01:34;;;;;;;3.50;3.20;;;1.70;99.90;0.50;100519.00;;;;5055882;28;20178;-77
2022/04/01 07:03:59;;;;;;;3.73;3.37;;;1.60;99.90;0.60;100523.00;;;;5025405;28;20230;-76
2022/04/01 07:06:26;;;;;;;10.33;7.43;;;1.70;99.90;0.60;100530.00;;;;5015892;28;20516;-76
2022/04/01 07:08:52;;;;;;;2.50;2.40;;;1.70;99.90;0.80;100538.00;;;;4999345;28;20549;-77
2022/04/01 07:11:19;;;;;;;2.77;1.83;;;1.80;99.90;0.80;100543.00;;;;4998917;28;20274;-77
2022/04/01 07:13:45;;;;;;;3.50;2.03;;;1.80;99.90;0.40;100542.00;;;;4998567;28;20182;-76
2022/04/01 07:16:13;;;;;;;3.60;3.30;;;1.70;99.90;0.60;100485.00;;;;4990048;28;20196;-77
2022/04/01 07:30:23;;;;;;;2.83;2.40;;;1.70;99.90;0.80;100568.00;;;;5044196;27;1997716;-76
2022/04/01 07:32:55;;;;;;;2.87;2.67;;;1.80;99.90;0.80;100571.00;;;;5069791;28;20193;-76
2022/04/01 07:35:21;;;;;;;2.37;2.17;;;1.80;99.90;0.60;100509.00;;;;5047241;28;20695;-76
2022/04/01 07:37:47;;;;;;;4.03;2.77;;;1.80;99.90;0.60;100564.00;;;;5051914;28;20268;-75
2022/04/01 07:40:16;;;;;;;3.23;2.53;;;1.80;99.90;0.60;100559.00;;;;5057249;28;20634;-75
2022/04/01 07:42:44;;;;;;;2.27;2.13;;;1.80;99.90;0.70;100569.00;;;;5051688;28;20182;-76
2022/04/01 07:45:11;;;;;;;2.27;2.07;;;1.70;99.90;0.60;100577.00;;;;5033870;28;20177;-75
2022/04/01 07:47:37;;;;;;;1.50;1.40;;;1.70;99.90;0.70;100576.00;;;;5051285;28;20188;-75
2022/04/01 07:50:05;;;;;;;1.73;1.63;;;1.80;99.90;0.60;100591.00;;;;5051151;28;20216;-75
2022/04/01 07:52:39;;;;;;;2.60;2.40;;;1.80;99.90;0.70;100599.00;;;;5034789;28;20546;-75
2022/04/01 07:55:13;;;;;;;3.37;3.07;;;1.80;99.90;0.70;100530.00;;;;5049805;28;20340;-75
2022/04/01 07:57:39;;;;;;;3.43;2.03;;;1.80;99.90;0.60;100598.00;;;;5034918;28;20182;-75
2022/04/01 08:00:08;;;;;;;2.60;2.43;;;1.80;99.90;0.70;100552.00;;;;5034847;28;20256;-76
2022/04/01 08:02:34;;;;;;;2.60;2.40;;;1.80;99.90;0.70;100607.00;;;;5050998;28;20181;-75
2022/04/01 08:05:00;;;;;;;3.17;2.87;;;1.80;99.90;0.70;100605.00;;;;5051168;28;20254;-76
2022/04/01 08:07:27;;;;;;;3.20;2.90;;;1.80;99.90;0.70;100621.00;;;;5051007;28;20186;-76
2022/04/01 08:09:53;;;;;;;3.27;2.40;;;1.90;99.90;0.70;100622.00;;;;5039272;28;20638;-76
2022/04/01 08:12:20;;;;;;;2.27;1.93;;;1.80;99.90;0.80;100621.00;;;;5088491;28;20192;-76
2022/04/01 08:14:46;;;;;;;5.13;2.83;;;1.90;99.90;0.80;100599.00;;;;5071134;28;20216;-75
2022/04/01 08:17:14;;;;;;;1.90;1.80;;;1.90;99.90;0.50;100593.00;;;;5071326;28;20180;-75
2022/04/01 08:19:41;;;;;;;8.00;2.40;;;1.80;99.90;0.90;100640.00;;;;5071595;28;20189;-75
2022/04/01 08:22:09;;;;;;;3.47;3.07;;;1.90;99.90;0.80;100636.00;;;;5089727;28;20196;-76
2022/04/01 08:24:35;;;;;;;3.00;2.57;;;2.00;99.90;0.80;100645.00;;;;5054845;28;20272;-75
2022/04/01 08:27:01;;;;;;;2.77;2.57;;;1.90;99.90;0.80;100656.00;;;;5071590;28;20184;-75
2022/04/01 08:29:29;;;;;;;3.17;2.37;;;1.90;99.90;0.90;100655.00;;;;5066384;28;20189;-75
2022/04/01 08:31:58;;;;;;;2.80;2.60;;;1.90;99.90;0.90;100664.00;;;;5057797;28;20626;-74
2022/04/01 08:34:24;;;;;;;3.27;2.97;;;1.90;99.90;0.90;100654.00;;;;5057757;28;20308;-73
2022/04/01 08:36:54;;;;;;;3.67;2.50;;;2.00;99.90;0.60;100671.00;;;;5039572;28;20173;-72
2022/04/01 08:39:23;;;;;;;2.00;1.90;;;2.00;99.90;1.00;100662.00;;;;5057665;28;20283;-72
2022/04/01 08:41:49;;;;;;;0.63;0.63;;;2.10;99.90;1.20;100667.00;;;;5036999;28;20201;-68
2022/04/01 08:44:15;;;;;;;2.97;2.77;;;2.20;99.90;0.90;100673.00;;;;5020655;28;20508;-69
2022/04/01 08:46:54;;;;;;;1.93;1.83;;;2.10;99.90;1.10;100661.00;;;;5021062;28;20190;-71
2022/04/01 08:49:20;;;;;;;2.13;1.93;;;2.20;99.90;1.00;100683.00;;;;5037932;28;20261;-66
2022/04/01 08:51:46;;;;;;;3.33;1.43;;;2.20;99.90;1.20;100693.00;;;;5037319;28;20499;-73
2022/04/01 08:54:14;;;;;;;1.27;1.17;;;2.20;99.90;1.20;100680.00;;;;5054285;28;20605;-72
2022/04/01 08:56:44;;;;;;;2.87;2.30;;;2.20;99.90;1.20;100677.00;;;;5021173;28;20236;-80
2022/04/01 08:59:13;;;;;;;2.97;2.73;;;2.30;99.90;1.20;100704.00;;;;5020256;28;20256;-72
2022/04/01 09:01:53;;;;;;;2.80;2.60;;;2.30;99.90;1.20;100694.00;;;;5055203;28;20173;-75
2022/04/01 09:04:23;;;;;;;2.70;2.50;;;2.30;99.90;1.20;100701.00;;;;5037239;28;20174;-76
2022/04/01 09:07:16;;;;;;;2.23;2.13;;;2.40;99.90;1.30;100654.00;;;;5037037;28;20630;-76
2022/04/01 09:10:08;;;;;;;0.97;0.97;;;2.40;99.90;1.30;100696.00;;;;5020043;28;20182;-76
2022/04/01 09:12:37;;;;;;;1.40;1.30;;;2.40;99.90;1.50;100696.00;;;;5037097;28;20581;-75
2022/04/01 09:15:19;;;;;;;0.60;0.60;;;2.40;99.90;1.60;100709.00;;;;5055011;28;20182;-73
2022/04/01 09:17:55;;;;;;;5.60;2.17;;;2.50;99.90;1.60;100721.00;;;;5036754;28;20217;-76
2022/04/01 09:20:49;;;;;;;7.80;1.53;;;2.60;99.90;1.20;100721.00;;;;5037565;28;20228;-75
2022/04/01 09:23:31;;;;;;;2.30;2.10;;;2.40;99.90;1.20;100716.00;;;;5036628;28;20163;-76
2022/04/01 09:26:03;;;;;;;1.17;1.17;;;2.30;99.90;1.30;100733.00;;;;5019395;28;20638;-61
2022/04/01 09:28:37;;;;;;;2.37;2.00;;;2.30;99.90;1.20;100760.00;;;;5037013;28;20186;-61
2022/04/01 09:31:15;;;;;;;6.17;1.70;;;2.30;99.90;1.20;100731.00;;;;5036339;28;20189;-63
2022/04/01 09:33:48;;;;;;;2.20;2.10;;;2.30;99.90;1.40;100734.00;;;;5053626;28;20628;-61
2022/04/01 09:36:24;;;;;;;2.17;1.97;;;2.40;99.90;1.30;100686.00;;;;5036244;28;20708;-60
2022/04/01 09:39:18;;;;;;;2.07;1.87;;;2.40;99.90;1.20;100733.00;;;;5036399;28;20268;-61
2022/04/01 09:41:53;;;;;;;1.07;1.07;;;2.30;99.90;1.30;100730.00;;;;5068721;28;20180;-59
2022/04/01 09:44:34;;;;;;;2.17;2.07;;;2.40;99.90;1.50;100729.00;;;;5056493;28;20594;-61
2022/04/01 09:47:05;;;;;;;2.17;1.93;;;2.50;99.90;1.60;100731.00;;;;5055874;28;20177;-61
2022/04/01 09:49:36;;;;;;;1.43;1.33;;;2.60;99.90;1.70;100729.00;;;;5038701;28;20638;-60
2022/04/01 09:52:20;;;;;;;2.73;2.53;;;2.70;99.90;1.60;100731.00;;;;5073708;28;20205;-60
2022/04/01 09:54:54;;;;;;;1.50;1.40;;;2.80;99.90;1.60;100741.00;;;;5056703;28;20180;-62
2022/04/01 09:57:30;;;;;;;2.43;1.87;;;2.70;99.90;1.70;100741.00;;;;5047700;28;20181;-62
2022/04/01 10:00:04;;;;;;;1.27;1.17;;;2.80;99.90;1.60;100746.00;;;;5039605;28;20378;-62
2022/04/01 10:02:43;;;;;;;2.87;2.67;;;2.80;99.90;1.60;100730.00;;;;5073622;28;20185;-74
2022/04/01 10:05:11;;;;;;;1.80;1.47;;;2.80;99.90;1.80;100744.00;;;;5050884;28;20211;-79
2022/04/01 10:07:41;;;;;;;3.43;1.93;;;2.90;99.90;1.70;100746.00;;;;5036753;28;20212;-80
2022/04/01 10:10:10;;;;;;;1.93;1.73;;;2.90;99.90;1.70;100744.00;;;;5054447;28;20189;-71
2022/04/01 10:12:48;;;;;;;1.23;1.10;;;2.90;99.90;2.00;100757.00;;;;5053353;28;20251;-77
2022/04/01 10:15:25;;;;;;;6.70;2.17;;;2.90;99.90;2.10;100700.00;;;;5035496;28;20626;-77
2022/04/01 10:17:55;;;;;;;0.83;0.83;;;3.10;99.90;2.00;100692.00;;;;5060396;28;20637;-77
2022/04/01 10:20:29;;;;;;;1.03;1.03;;;3.10;99.90;2.20;100757.00;;;;5036111;28;20228;-77
2022/04/01 10:33:33;;;;;;;2.33;1.40;;;3.20;99.90;2.20;100715.00;;;;5125028;27;1304757;-78
2022/04/01 10:36:28;;;;;;;1.10;0.83;;;3.30;99.90;2.30;100730.00;;;;5129764;28;20198;-79
2022/04/01 10:39:07;;;;;;;1.20;1.10;;;3.40;99.90;2.40;100721.00;;;;5129081;28;20179;-79
2022/04/01 10:41:36;;;;;;;4.40;1.30;;;3.40;99.90;2.60;100731.00;;;;5116895;28;20217;-79
2022/04/01 10:44:08;;;;;;;0.60;0.60;;;3.60;99.90;2.60;100749.00;;;;5092522;28;20188;-79
2022/04/01 10:46:58;;;;;;;1.40;0.80;;;3.60;99.90;2.70;100707.00;;;;5109840;28;20180;-79
2022/04/01 10:52:27;;;;;;;3.43;0.97;;;3.60;99.90;2.80;100760.00;;;;5108056;28;20203;-78
2022/04/01 10:55:10;;;;;;;1.03;1.00;;;3.80;99.90;2.50;100692.00;;;;5107945;28;20635;-77
2022/04/01 10:57:46;;;;;;;0.80;0.80;;;3.70;99.90;2.40;100757.00;;;;5109050;28;20594;-77
2022/04/01 11:00:17;;;;;;;0.67;0.67;;;3.60;99.90;2.70;100782.00;;;;5091475;28;20180;-77
2022/04/01 11:02:48;;;;;;;1.03;0.93;;;3.70;99.90;2.40;100777.00;;;;5091937;28;20172;-77
2022/04/01 11:05:23;;;;;;;1.60;1.50;;;3.60;99.90;2.50;100801.00;;;;5110483;28;20211;-77
2022/04/01 11:08:23;;;;;;;1.50;1.40;;;3.60;99.90;2.30;100770.00;;;;5110424;28;20629;-77
2022/04/01 11:11:12;;;;;;;0.70;0.70;;;3.50;99.90;2.70;100770.00;;;;5108728;28;20176;-77
2022/04/01 11:14:09;;;;;;;1.23;1.20;;;3.80;99.90;2.60;100681.00;;;;5128619;28;20246;-77
2022/04/01 11:17:06;;;;;;;1.47;1.37;;;3.70;99.90;2.60;100801.00;;;;5102138;28;20561;-77
2022/04/01 11:20:07;;;;;;;2.10;0.80;;;3.80;99.90;2.60;100774.00;;;;5108167;28;20233;-76
2022/04/01 11:22:52;;;;;;;1.00;1.00;;;3.80;99.90;2.60;100751.00;;;;5109761;28;20626;-77
2022/04/01 11:25:36;;;;;;;0.83;0.83;;;3.80;99.90;2.80;100753.00;;;;5108452;28;20590;-77
2022/04/01 11:28:14;;;;;;;3.43;3.23;;;3.80;99.90;2.90;100805.00;;;;5109014;28;20180;-76
2022/04/01 11:30:58;;;;;;;1.33;1.23;;;4.00;99.90;3.10;100802.00;;;;5110463;28;20203;-77
2022/04/01 11:33:23;;;;;;;1.40;1.30;;;4.10;99.90;2.90;100761.00;;;;5107993;28;20563;-77
2022/04/01 11:35:57;;;;;;;1.33;0.97;;;4.00;99.90;2.80;100805.00;;;;5091863;28;20180;-77
2022/04/01 11:38:32;;;;;;;2.13;1.27;;;4.00;99.90;2.80;100799.00;;;;5108613;28;20658;-77
2022/04/01 11:41:03;;;;;;;2.33;1.80;;;3.90;99.90;2.70;100810.00;;;;5092254;28;20179;-76
2022/04/01 11:43:35;;;;;;;1.00;1.00;;;3.90;99.90;2.50;100797.00;;;;5101227;28;20635;-77
2022/04/01 11:46:14;;;;;;;1.70;1.17;;;3.90;99.90;3.00;100831.00;;;;5094970;28;20218;-77
2022/04/01 11:48:47;;;;;;;1.57;1.23;;;4.00;99.90;3.00;100834.00;;;;5094124;28;20229;-77
2022/04/01 11:51:26;;;;;;;1.03;0.90;;;4.10;99.90;3.20;100814.00;;;;5095029;28;20188;-77
2022/04/01 11:54:01;;;;;;;2.17;1.67;;;4.20;99.90;3.10;100814.00;;;;5078355;28;20265;-67
2022/04/01 11:56:43;;;;;;;1.30;1.20;;;4.20;99.90;3.20;100819.00;;;;5095609;28;20176;-74
2022/04/01 11:59:17;;;;;;;2.23;1.13;;;4.20;99.90;3.10;100835.00;;;;5094396;28;20176;-73
2022/04/01 12:01:54;;;;;;;1.63;1.53;;;4.20;99.90;3.40;100858.00;;;;5099575;28;20270;-74
2022/04/01 12:04:34;;;;;;;1.40;1.27;;;4.30;99.90;3.60;100795.00;;;;5090140;28;20195;-74
2022/04/01 12:10:28;;;;;;;2.50;0.93;;;4.70;99.90;3.70;100850.00;;;;5094635;28;20233;-74
2022/04/01 12:13:09;;;;;;;1.40;1.30;;;4.60;99.90;3.50;100865.00;;;;5077397;28;20212;-74
2022/04/01 12:15:52;;;;;;;1.63;1.53;;;4.50;99.90;3.50;100858.00;;;;5109998;28;20168;-75
2022/04/01 12:18:28;;;;;;;0.80;0.80;;;4.40;99.90;3.60;100856.00;;;;5113910;28;20278;-74
2022/04/01 12:21:03;;;;;;;0.40;0.40;;;4.50;99.90;3.50;100833.00;;;;5114540;28;20260;-72
2022/04/01 12:23:40;;;;;;;1.10;0.83;;;4.50;99.90;3.40;100857.00;;;;5111855;28;20179;-72